Terminal Aerodrome Forecast
Issued by NWS

Home | Current Version | Previous Version | Text Only | Print | Product List | Glossary On
Versions: 1 2 3 4 5 6 7 8 9 10 11 12 13 14 15 16
062
FTPA31 PHFO 181122
TAFHNY
TAF
PHNY 181122Z 1812/1912 05012G20KT P6SM FEW025
     FM182100 06023G35KT P6SM FEW025
     FM190300 06018G25KT P6SM FEW020=

USA.gov is the U.S. government's official web portal to all federal, state and local government web resources and services.